Time;durP1;ratioP1;P1;durP2;ratioP2;P2;SDS_P1;SDS_P2;PMS_P1;PMS_P2;Temp;Humidity;BMP_temperature;BMP_pressure;BME280_temperature;BME280_humidity;BME280_pressure;Samples;Min_cycle;Max_cycle;Signal;HPM_P1;HPM_P2
2023/05/10 00:00:31;;;;;;;3.20;3.00;;;19.70;31.00;;;;;;10445500;28;20275;-65
2023/05/10 00:05:36;;;;;;;2.40;2.30;;;19.50;31.40;;;;;;10441772;28;20244;-66
2023/05/10 00:10:40;;;;;;;3.03;2.47;;;19.40;32.40;;;;;;10423973;28;20760;-67
2023/05/10 00:15:43;;;;;;;1.77;1.67;;;19.30;31.90;;;;;;10457863;28;20239;-67
2023/05/10 00:20:48;;;;;;;1.90;1.80;;;19.20;31.80;;;;;;10436876;28;20221;-67
2023/05/10 00:25:51;;;;;;;1.50;1.40;;;19.10;33.00;;;;;;10445334;28;20239;-67
2023/05/10 00:30:55;;;;;;;3.20;1.87;;;19.00;32.40;;;;;;10442648;28;20225;-67
2023/05/10 00:36:00;;;;;;;1.40;1.30;;;18.90;32.70;;;;;;10450156;28;20240;-66
2023/05/10 00:41:03;;;;;;;1.27;1.20;;;18.70;33.80;;;;;;10445900;28;20229;-67
2023/05/10 00:46:07;;;;;;;1.07;1.07;;;18.60;33.40;;;;;;10440317;28;20228;-67
2023/05/10 00:51:11;;;;;;;1.93;1.37;;;18.50;33.90;;;;;;10439159;28;20225;-66
2023/05/10 00:56:15;;;;;;;1.00;1.00;;;18.40;35.10;;;;;;10442077;28;20982;-66
2023/05/10 01:01:19;;;;;;;1.30;1.20;;;18.30;34.20;;;;;;10447829;28;20228;-67
2023/05/10 01:06:24;;;;;;;1.10;1.10;;;18.30;34.50;;;;;;10449128;28;20244;-67
2023/05/10 01:11:27;;;;;;;1.40;1.27;;;18.30;35.00;;;;;;10448287;28;20228;-67
2023/05/10 01:16:33;;;;;;;1.43;1.20;;;18.20;34.90;;;;;;10453261;28;20220;-67
2023/05/10 01:21:44;;;;;;;1.30;1.20;;;18.20;34.90;;;;;;10443470;28;20709;-67
2023/05/10 01:27:18;;;;;;;1.20;1.20;;;18.10;36.90;;;;;;10443496;28;20231;-67
2023/05/10 01:32:31;;;;;;;1.27;1.17;;;18.10;36.50;;;;;;10445295;28;20230;-67
2023/05/10 01:37:42;;;;;;;1.17;1.17;;;18.10;37.60;;;;;;10447220;28;20301;-67
2023/05/10 01:42:50;;;;;;;1.40;1.30;;;18.10;37.60;;;;;;10451763;28;20232;-67
2023/05/10 01:48:05;;;;;;;1.37;1.30;;;18.10;37.20;;;;;;10445478;28;20236;-67
2023/05/10 01:53:10;;;;;;;1.30;1.30;;;18.10;38.10;;;;;;10446460;28;20225;-66
2023/05/10 01:58:18;;;;;;;1.60;1.50;;;18.10;36.80;;;;;;10449445;28;20247;-66
2023/05/10 02:03:26;;;;;;;1.40;1.40;;;18.00;36.90;;;;;;10447230;28;20598;-66
2023/05/10 02:08:29;;;;;;;1.30;1.30;;;18.00;38.00;;;;;;10447403;28;20225;-66
2023/05/10 02:13:36;;;;;;;1.40;1.30;;;18.00;36.60;;;;;;10446220;28;20224;-66
2023/05/10 02:18:42;;;;;;;1.40;1.30;;;18.00;38.00;;;;;;10451239;28;20228;-66
2023/05/10 02:23:47;;;;;;;1.30;1.30;;;18.00;38.00;;;;;;10441572;28;20241;-66
2023/05/10 02:28:51;;;;;;;1.77;1.67;;;18.00;37.70;;;;;;10447553;28;20228;-67
2023/05/10 02:33:58;;;;;;;1.63;1.50;;;18.00;37.10;;;;;;10445201;28;20251;-67
2023/05/10 02:39:03;;;;;;;2.60;1.40;;;18.00;38.30;;;;;;10443991;28;20229;-67
2023/05/10 02:44:08;;;;;;;1.40;1.30;;;18.00;38.90;;;;;;10444804;28;20283;-67
2023/05/10 02:49:13;;;;;;;1.53;1.43;;;18.00;38.30;;;;;;10441977;28;20228;-67
2023/05/10 02:54:21;;;;;;;1.60;1.50;;;18.00;38.30;;;;;;10453161;28;20239;-67
2023/05/10 02:59:24;;;;;;;1.53;1.30;;;17.90;39.10;;;;;;10449867;28;20223;-67
2023/05/10 03:04:28;;;;;;;1.13;1.13;;;18.00;37.80;;;;;;10442612;28;20233;-67
2023/05/10 03:09:32;;;;;;;1.37;1.23;;;17.90;38.60;;;;;;10445851;28;20224;-67
2023/05/10 03:14:52;;;;;;;1.10;1.10;;;17.90;38.20;;;;;;10450764;28;20240;-67
2023/05/10 03:19:58;;;;;;;0.90;0.90;;;17.90;39.70;;;;;;10441770;28;20642;-67
2023/05/10 03:25:06;;;;;;;0.80;0.80;;;17.90;38.90;;;;;;10443539;28;20237;-67
2023/05/10 03:30:12;;;;;;;0.70;0.70;;;17.80;39.40;;;;;;10449545;28;20224;-67
2023/05/10 03:35:17;;;;;;;0.80;0.80;;;17.80;38.90;;;;;;10451406;28;20267;-66
2023/05/10 03:40:20;;;;;;;0.90;0.90;;;17.80;38.80;;;;;;10447231;28;20584;-67
2023/05/10 03:45:23;;;;;;;1.00;0.80;;;17.80;38.20;;;;;;10455129;28;20735;-67
2023/05/10 03:50:28;;;;;;;0.80;0.80;;;17.70;38.40;;;;;;10451876;28;20322;-67
2023/05/10 03:55:34;;;;;;;2.03;1.10;;;17.60;39.00;;;;;;10454762;28;20224;-67
2023/05/10 04:00:37;;;;;;;1.20;1.10;;;17.70;38.70;;;;;;10449429;28;20225;-67
2023/05/10 04:05:41;;;;;;;1.00;1.00;;;17.60;38.80;;;;;;10453053;28;20890;-67
2023/05/10 04:10:45;;;;;;;0.80;0.80;;;17.60;39.70;;;;;;10453389;28;20653;-67
2023/05/10 04:15:48;;;;;;;1.00;1.00;;;17.60;39.10;;;;;;10444426;28;20833;-67
2023/05/10 04:20:52;;;;;;;1.23;1.10;;;17.50;39.10;;;;;;10446409;28;20708;-66
2023/05/10 04:26:01;;;;;;;0.90;0.83;;;17.50;40.10;;;;;;10447797;28;21157;-66
2023/05/10 04:31:05;;;;;;;0.80;0.80;;;17.40;40.70;;;;;;10444196;28;21009;-67
2023/05/10 04:36:10;;;;;;;2.20;0.80;;;17.40;39.60;;;;;;10452646;28;20599;-67
2023/05/10 04:41:13;;;;;;;0.70;0.60;;;17.40;40.40;;;;;;10448984;28;20229;-67
2023/05/10 04:46:16;;;;;;;0.80;0.80;;;17.40;39.70;;;;;;10450835;28;20236;-67
2023/05/10 04:51:21;;;;;;;0.70;0.70;;;17.40;39.80;;;;;;10449724;28;20229;-66
2023/05/10 04:56:24;;;;;;;1.33;0.70;;;17.40;40.40;;;;;;10448894;28;20228;-67
2023/05/10 05:01:27;;;;;;;0.80;0.80;;;17.50;39.90;;;;;;10448513;28;20236;-67
2023/05/10 05:06:32;;;;;;;1.03;0.60;;;17.50;39.90;;;;;;10447247;28;20233;-67
2023/05/10 05:11:35;;;;;;;0.70;0.70;;;17.50;40.50;;;;;;10449420;28;20332;-67
2023/05/10 05:16:38;;;;;;;0.60;0.60;;;17.50;39.80;;;;;;10446634;28;20229;-67
2023/05/10 05:21:43;;;;;;;0.87;0.60;;;17.50;39.70;;;;;;10446432;28;20281;-67
2023/05/10 05:26:46;;;;;;;0.50;0.50;;;17.50;40.40;;;;;;10451138;28;20732;-67
2023/05/10 05:31:49;;;;;;;0.70;0.70;;;17.40;39.70;;;;;;10444905;28;20244;-67
2023/05/10 05:36:55;;;;;;;0.50;0.50;;;17.30;40.00;;;;;;10445051;28;20225;-67
2023/05/10 05:41:58;;;;;;;0.60;0.50;;;17.30;40.70;;;;;;10444767;28;20229;-67
2023/05/10 05:47:01;;;;;;;0.60;0.60;;;17.20;40.00;;;;;;10446849;28;20240;-67
2023/05/10 05:52:06;;;;;;;0.50;0.50;;;17.10;40.10;;;;;;10443653;28;20221;-67
2023/05/10 05:57:09;;;;;;;0.53;0.50;;;17.00;40.80;;;;;;10439400;28;20791;-67
2023/05/10 06:02:12;;;;;;;0.50;0.50;;;17.00;40.10;;;;;;10447230;28;20225;-67
2023/05/10 06:07:17;;;;;;;0.57;0.57;;;17.00;40.10;;;;;;10444957;28;20260;-67
2023/05/10 06:12:20;;;;;;;0.70;0.70;;;17.00;40.60;;;;;;10444290;28;20232;-67
2023/05/10 06:17:23;;;;;;;0.70;0.70;;;17.00;40.10;;;;;;10445287;28;20235;-67
2023/05/10 06:22:28;;;;;;;2.00;0.53;;;17.00;40.10;;;;;;10447897;28;20328;-67
2023/05/10 06:27:31;;;;;;;0.70;0.70;;;17.00;40.80;;;;;;10443684;28;20299;-67
2023/05/10 06:32:34;;;;;;;0.80;0.80;;;16.90;40.20;;;;;;10445991;28;20245;-67
2023/05/10 06:37:39;;;;;;;0.73;0.73;;;16.90;40.30;;;;;;10444075;28;20242;-67
2023/05/10 06:42:44;;;;;;;0.70;0.70;;;16.90;41.10;;;;;;10440365;28;20627;-67
2023/05/10 06:47:47;;;;;;;0.53;0.53;;;17.00;40.80;;;;;;10435162;28;20249;-66
2023/05/10 06:52:52;;;;;;;0.90;0.90;;;17.00;40.60;;;;;;10431706;28;20244;-66
2023/05/10 06:57:55;;;;;;;0.70;0.70;;;17.00;40.80;;;;;;10435976;28;20232;-67
2023/05/10 07:02:58;;;;;;;0.70;0.70;;;17.10;40.70;;;;;;10435035;28;20238;-66
2023/05/10 07:08:03;;;;;;;0.80;0.80;;;17.10;40.70;;;;;;10444626;28;20319;-67
2023/05/10 07:13:07;;;;;;;0.90;0.90;;;17.10;40.90;;;;;;10441701;28;20228;-67
2023/05/10 07:18:10;;;;;;;1.30;0.80;;;17.10;40.90;;;;;;10442135;28;20921;-67
2023/05/10 07:23:14;;;;;;;0.73;0.73;;;17.10;41.10;;;;;;10447008;28;20321;-67
2023/05/10 07:28:18;;;;;;;0.83;0.83;;;17.20;41.60;;;;;;10439301;28;20231;-67
2023/05/10 07:33:21;;;;;;;0.90;0.90;;;17.40;41.40;;;;;;10440603;28;20225;-66
2023/05/10 07:38:25;;;;;;;1.13;1.00;;;17.50;41.10;;;;;;10439576;28;20279;-67
2023/05/10 07:43:29;;;;;;;1.10;1.10;;;17.60;41.50;;;;;;10440793;28;20235;-67
2023/05/10 07:48:32;;;;;;;1.23;1.13;;;17.60;40.80;;;;;;10450996;28;20442;-66
2023/05/10 07:53:36;;;;;;;1.00;1.00;;;17.60;40.70;;;;;;10449141;28;20923;-67
2023/05/10 07:58:40;;;;;;;1.13;1.13;;;17.70;41.50;;;;;;10425096;23;20233;-77
2023/05/10 08:04:42;;;;;;;1.10;1.10;;;17.70;40.70;;;;;;10512465;27;20574;-72
2023/05/10 08:09:45;;;;;;;1.20;1.20;;;17.80;41.50;;;;;;10508362;28;20341;-72
2023/05/10 08:14:49;;;;;;;1.20;1.20;;;17.80;41.50;;;;;;10480394;28;21060;-73
2023/05/10 08:19:53;;;;;;;1.10;1.00;;;17.90;41.10;;;;;;10477351;28;20232;-72
2023/05/10 08:24:56;;;;;;;1.67;1.03;;;18.10;41.10;;;;;;10478228;28;20228;-72
2023/05/10 08:30:00;;;;;;;1.20;1.10;;;18.20;40.90;;;;;;10479551;28;20690;-72
2023/05/10 08:35:05;;;;;;;1.10;1.00;;;18.20;40.60;;;;;;10479937;28;20305;-73
2023/05/10 08:40:12;;;;;;;1.20;1.20;;;18.20;40.60;;;;;;10482363;28;20235;-73
2023/05/10 08:45:18;;;;;;;1.13;1.03;;;18.20;40.80;;;;;;10481525;28;20219;-73
2023/05/10 08:50:23;;;;;;;1.50;1.17;;;18.20;41.10;;;;;;10474502;28;20327;-73
2023/05/10 08:55:27;;;;;;;2.13;1.10;;;18.20;41.10;;;;;;10476519;28;20224;-73
2023/05/10 09:00:30;;;;;;;1.27;1.03;;;18.20;41.10;;;;;;10475531;28;20228;-72
2023/05/10 09:05:36;;;;;;;1.10;1.00;;;18.20;40.70;;;;;;10476926;28;20832;-72
2023/05/10 09:10:41;;;;;;;1.30;1.20;;;18.40;40.90;;;;;;10481352;28;20328;-72
2023/05/10 09:15:45;;;;;;;1.00;1.00;;;18.30;40.40;;;;;;10460596;28;20236;-72
2023/05/10 09:20:49;;;;;;;1.40;1.27;;;18.30;40.30;;;;;;10458454;28;20232;-72
2023/05/10 09:26:04;;;;;;;1.27;1.17;;;18.20;40.30;;;;;;10463073;28;20931;-72
2023/05/10 09:31:07;;;;;;;1.10;1.10;;;18.20;40.50;;;;;;10455197;28;20999;-72
2023/05/10 09:36:13;;;;;;;1.27;1.17;;;18.20;40.60;;;;;;10445123;28;20235;-72
2023/05/10 09:41:20;;;;;;;0.97;0.97;;;18.20;41.50;;;;;;10444221;28;20224;-72
2023/05/10 09:46:23;;;;;;;2.10;1.37;;;18.40;42.00;;;;;;10449790;28;20232;-72
2023/05/10 09:51:29;;;;;;;1.33;1.27;;;18.60;40.90;;;;;;10447043;28;20928;-72
2023/05/10 09:56:35;;;;;;;1.10;1.10;;;18.70;40.50;;;;;;10455374;28;20232;-71
2023/05/10 10:01:40;;;;;;;1.20;1.10;;;18.80;40.40;;;;;;10442009;28;20235;-72
2023/05/10 10:06:45;;;;;;;1.20;1.10;;;18.90;39.90;;;;;;10460130;28;20226;-72
2023/05/10 10:11:48;;;;;;;1.10;1.10;;;18.90;39.60;;;;;;10458796;28;20801;-72
2023/05/10 10:16:51;;;;;;;1.10;1.10;;;18.90;39.30;;;;;;10446858;28;20631;-72
2023/05/10 10:22:11;;;;;;;1.00;1.00;;;18.90;39.40;;;;;;10446841;28;20659;-72
2023/05/10 10:27:23;;;;;;;1.30;1.20;;;18.90;39.20;;;;;;10443308;28;20704;-72
2023/05/10 10:32:34;;;;;;;1.27;1.17;;;19.00;39.70;;;;;;10448730;28;20235;-72
2023/05/10 10:37:51;;;;;;;1.10;1.00;;;19.10;40.80;;;;;;10451007;28;20229;-72
2023/05/10 10:42:55;;;;;;;2.00;1.13;;;19.40;40.30;;;;;;10448869;28;20236;-72
2023/05/10 10:48:22;;;;;;;1.17;1.13;;;19.60;39.50;;;;;;10456605;28;20235;-71
2023/05/10 10:53:29;;;;;;;2.27;1.30;;;19.80;38.60;;;;;;10496267;28;20314;-71
2023/05/10 10:58:32;;;;;;;2.57;1.00;;;19.90;38.50;;;;;;10498478;28;20242;-71
2023/05/10 11:03:35;;;;;;;1.10;1.10;;;19.90;38.20;;;;;;10495435;28;20270;-71
2023/05/10 11:08:44;;;;;;;1.77;1.30;;;20.00;38.70;;;;;;10499880;28;20235;-71
2023/05/10 11:13:49;;;;;;;1.20;1.20;;;20.00;38.50;;;;;;10495479;28;20232;-72
2023/05/10 11:18:57;;;;;;;2.20;1.17;;;20.00;38.40;;;;;;10494367;28;20230;-71
2023/05/10 11:24:15;;;;;;;1.80;0.90;;;20.00;38.40;;;;;;10494040;28;20308;-72
2023/05/10 11:29:18;;;;;;;1.53;0.90;;;20.00;37.10;;;;;;10497565;28;21014;-72
2023/05/10 11:34:25;;;;;;;0.87;0.87;;;20.10;37.40;;;;;;10499709;28;20234;-72
2023/05/10 11:39:31;;;;;;;1.00;0.90;;;20.10;36.60;;;;;;10497586;28;20611;-72
2023/05/10 11:44:34;;;;;;;0.97;0.97;;;20.10;36.60;;;;;;10499599;28;20235;-72
2023/05/10 11:49:37;;;;;;;1.03;1.03;;;20.00;37.30;;;;;;10492524;28;20235;-72
2023/05/10 11:54:52;;;;;;;2.10;1.27;;;20.10;37.10;;;;;;10493251;28;20223;-72
2023/05/10 11:59:57;;;;;;;2.20;0.80;;;20.10;37.30;;;;;;10498626;28;20286;-74
2023/05/10 12:05:00;;;;;;;2.90;0.83;;;20.20;36.70;;;;;;10489776;28;20710;-72
2023/05/10 12:10:07;;;;;;;0.70;0.70;;;20.10;36.60;;;;;;10492285;28;20231;-72
2023/05/10 12:15:17;;;;;;;1.20;1.03;;;19.90;36.40;;;;;;10490943;28;20872;-72
2023/05/10 12:20:22;;;;;;;1.53;1.10;;;19.80;36.30;;;;;;10491927;28;21054;-72
2023/05/10 12:25:32;;;;;;;1.23;1.13;;;19.60;36.20;;;;;;10489473;28;20707;-72
2023/05/10 12:30:36;;;;;;;1.10;0.90;;;19.40;36.80;;;;;;10487286;28;20778;-72
2023/05/10 12:35:51;;;;;;;1.10;1.00;;;19.20;36.80;;;;;;10487236;28;20235;-72
2023/05/10 12:40:55;;;;;;;0.90;0.90;;;19.10;37.50;;;;;;10489577;28;20981;-71
2023/05/10 12:45:59;;;;;;;0.80;0.80;;;19.10;37.30;;;;;;10493504;28;20232;-72
2023/05/10 12:51:02;;;;;;;1.07;0.80;;;19.10;37.40;;;;;;10503255;28;20866;-73
2023/05/10 12:56:07;;;;;;;0.87;0.87;;;19.10;37.00;;;;;;10497760;28;20647;-72
2023/05/10 13:01:11;;;;;;;1.27;0.97;;;19.10;37.20;;;;;;10503333;28;20228;-74
2023/05/10 13:06:15;;;;;;;0.97;0.80;;;19.20;37.80;;;;;;10498549;28;20224;-72
2023/05/10 13:11:21;;;;;;;1.00;1.00;;;19.20;38.10;;;;;;10491325;28;20223;-72
2023/05/10 13:16:24;;;;;;;1.07;1.00;;;19.40;37.20;;;;;;10489354;28;20699;-72
2023/05/10 13:21:27;;;;;;;1.00;1.00;;;19.40;37.30;;;;;;10496652;28;20774;-72
2023/05/10 13:26:32;;;;;;;0.90;0.90;;;19.50;37.30;;;;;;10499456;28;20228;-72
2023/05/10 13:31:35;;;;;;;1.10;1.00;;;19.60;37.80;;;;;;10496905;28;20280;-71
2023/05/10 13:36:39;;;;;;;1.43;1.20;;;19.70;37.50;;;;;;10494776;28;20294;-72
2023/05/10 13:41:43;;;;;;;0.77;0.77;;;19.70;37.30;;;;;;10496169;28;20691;-72
2023/05/10 13:46:47;;;;;;;0.80;0.80;;;19.70;36.20;;;;;;10492268;28;20224;-71
2023/05/10 13:51:50;;;;;;;0.70;0.70;;;19.80;36.80;;;;;;10494732;28;20215;-71
2023/05/10 13:56:55;;;;;;;0.93;0.93;;;19.80;36.30;;;;;;10493354;28;20231;-71
2023/05/10 14:01:58;;;;;;;1.40;1.10;;;19.80;36.30;;;;;;10493502;28;20227;-71
2023/05/10 14:07:01;;;;;;;2.37;1.33;;;19.80;36.30;;;;;;10490901;28;20226;-77
2023/05/10 14:12:06;;;;;;;2.77;1.97;;;19.90;36.40;;;;;;10498213;28;20232;-72
2023/05/10 14:17:09;;;;;;;1.60;1.00;;;19.90;36.40;;;;;;10496821;28;21017;-72
2023/05/10 14:22:14;;;;;;;1.70;1.00;;;19.90;36.60;;;;;;10496860;28;20765;-72
2023/05/10 14:27:19;;;;;;;1.00;0.90;;;19.90;37.20;;;;;;10498423;28;20242;-72
2023/05/10 14:32:22;;;;;;;0.87;0.87;;;19.90;37.30;;;;;;10493519;28;21305;-72
2023/05/10 14:37:25;;;;;;;1.83;0.93;;;19.90;37.20;;;;;;10491806;28;20232;-72
2023/05/10 14:42:31;;;;;;;0.80;0.80;;;19.90;36.80;;;;;;10497335;28;20219;-72
2023/05/10 14:47:34;;;;;;;1.43;1.30;;;19.90;36.40;;;;;;10491027;28;20333;-72
2023/05/10 14:52:37;;;;;;;1.37;0.90;;;19.80;36.30;;;;;;10492798;28;20622;-72
2023/05/10 14:57:42;;;;;;;0.70;0.70;;;19.40;36.20;;;;;;10489259;28;20234;-72
2023/05/10 15:02:45;;;;;;;1.40;1.30;;;19.00;36.80;;;;;;10490337;28;20243;-73
2023/05/10 15:07:49;;;;;;;0.90;0.90;;;18.60;37.10;;;;;;10488709;28;20232;-73
2023/05/10 15:12:53;;;;;;;2.00;1.37;;;18.30;37.30;;;;;;10484778;28;20239;-73
2023/05/10 15:17:56;;;;;;;0.90;0.90;;;18.10;38.10;;;;;;10488309;28;20726;-73
2023/05/10 15:22:59;;;;;;;1.10;1.00;;;18.00;38.10;;;;;;10493125;28;20238;-73
2023/05/10 15:28:05;;;;;;;1.40;1.07;;;17.90;38.20;;;;;;10497699;28;21003;-74
2023/05/10 15:33:08;;;;;;;0.90;0.90;;;17.90;38.90;;;;;;10496983;28;20227;-74
2023/05/10 15:38:11;;;;;;;3.23;1.00;;;17.90;38.90;;;;;;10500983;28;20238;-73
2023/05/10 15:43:16;;;;;;;1.00;1.00;;;18.00;38.90;;;;;;10493795;28;20219;-73
2023/05/10 15:48:20;;;;;;;0.77;0.77;;;18.00;39.30;;;;;;10497050;28;20700;-73
2023/05/10 15:53:23;;;;;;;2.83;1.07;;;17.90;38.90;;;;;;10490660;28;20231;-73
2023/05/10 15:58:27;;;;;;;4.90;1.20;;;17.80;39.10;;;;;;10494732;28;20228;-73
2023/05/10 16:03:31;;;;;;;1.13;1.10;;;17.80;40.10;;;;;;10496616;28;20873;-73
2023/05/10 16:08:34;;;;;;;1.83;1.10;;;17.70;39.50;;;;;;10494563;28;20232;-73
2023/05/10 16:13:38;;;;;;;1.30;1.00;;;17.60;39.60;;;;;;10489359;28;20228;-73
2023/05/10 16:18:41;;;;;;;1.20;1.10;;;17.50;40.40;;;;;;10490886;28;20246;-73
2023/05/10 16:23:45;;;;;;;1.00;1.00;;;17.50;40.10;;;;;;10492325;28;20258;-72
2023/05/10 16:28:50;;;;;;;2.73;1.20;;;17.60;40.50;;;;;;10500342;28;20776;-73
2023/05/10 16:33:53;;;;;;;1.70;1.20;;;17.60;40.90;;;;;;10501983;28;20605;-72
2023/05/10 16:38:57;;;;;;;1.60;1.40;;;17.50;40.00;;;;;;10497759;28;20238;-73
2023/05/10 16:44:02;;;;;;;1.77;1.23;;;17.50;40.20;;;;;;10495952;28;20316;-71
2023/05/10 16:49:07;;;;;;;2.83;1.40;;;17.40;40.40;;;;;;10497023;28;20224;-72
2023/05/10 16:54:11;;;;;;;2.17;1.20;;;17.30;40.10;;;;;;10496304;28;20633;-72
2023/05/10 16:59:16;;;;;;;2.47;1.30;;;17.20;39.90;;;;;;10502193;28;20235;-72
2023/05/10 17:04:19;;;;;;;1.30;1.20;;;17.10;40.20;;;;;;10498997;28;20868;-73
2023/05/10 17:09:22;;;;;;;1.10;1.00;;;17.00;39.90;;;;;;10494897;28;20243;-73
2023/05/10 17:14:27;;;;;;;1.63;1.10;;;16.80;39.70;;;;;;10497466;28;20746;-74
2023/05/10 17:19:30;;;;;;;1.17;1.10;;;16.70;40.50;;;;;;10497569;28;20317;-73
2023/05/10 17:24:33;;;;;;;0.90;0.90;;;16.60;40.20;;;;;;10496094;28;20258;-73
2023/05/10 17:29:38;;;;;;;1.40;1.30;;;16.50;40.40;;;;;;10495580;28;20243;-73
2023/05/10 17:34:41;;;;;;;1.50;1.40;;;16.50;41.00;;;;;;10496388;28;20223;-73
2023/05/10 17:39:44;;;;;;;1.30;1.20;;;16.50;40.50;;;;;;10489897;28;20228;-73
2023/05/10 17:44:48;;;;;;;1.10;1.10;;;16.50;40.50;;;;;;10496299;28;20745;-73
2023/05/10 17:49:52;;;;;;;1.10;1.10;;;16.40;40.80;;;;;;10494825;28;20228;-72
2023/05/10 17:54:55;;;;;;;1.73;1.30;;;16.40;40.40;;;;;;10494255;28;20220;-73
2023/05/10 18:00:01;;;;;;;2.20;1.77;;;16.40;40.30;;;;;;10495850;28;20232;-73
2023/05/10 18:05:04;;;;;;;1.33;1.03;;;16.30;40.90;;;;;;10462596;28;20315;-72
2023/05/10 18:10:08;;;;;;;1.73;1.40;;;16.30;40.60;;;;;;10454731;28;20644;-72
2023/05/10 18:15:13;;;;;;;2.17;2.07;;;16.20;40.90;;;;;;10468076;28;20225;-73
2023/05/10 18:20:16;;;;;;;1.20;1.13;;;16.20;41.10;;;;;;10457216;28;20282;-72
2023/05/10 18:25:19;;;;;;;1.20;1.10;;;16.10;40.70;;;;;;10458181;28;20229;-71
2023/05/10 18:30:24;;;;;;;0.90;0.90;;;16.10;40.90;;;;;;10456747;28;20292;-72
2023/05/10 18:35:28;;;;;;;1.20;1.10;;;16.00;41.40;;;;;;10462190;28;20225;-72
2023/05/10 18:40:32;;;;;;;1.00;1.00;;;16.00;41.00;;;;;;10459364;28;20236;-72
2023/05/10 18:45:37;;;;;;;1.07;1.00;;;15.90;41.40;;;;;;10462253;28;20232;-72
2023/05/10 18:50:41;;;;;;;3.33;2.97;;;15.90;41.50;;;;;;10463108;28;20233;-72
2023/05/10 18:55:44;;;;;;;4.13;3.60;;;15.90;41.30;;;;;;10467221;28;20227;-72
2023/05/10 19:00:50;;;;;;;1.70;1.60;;;15.90;41.40;;;;;;10462602;28;20231;-72
2023/05/10 19:05:53;;;;;;;1.20;1.10;;;15.90;41.80;;;;;;10462105;28;20232;-73
2023/05/10 19:10:56;;;;;;;1.20;1.20;;;15.80;41.20;;;;;;10463896;28;20236;-72
2023/05/10 19:16:05;;;;;;;1.57;1.43;;;15.80;41.30;;;;;;10463229;28;20221;-72
2023/05/10 19:21:09;;;;;;;1.30;1.10;;;15.80;42.40;;;;;;10495887;28;20331;-73
2023/05/10 19:26:13;;;;;;;1.47;1.30;;;15.80;41.40;;;;;;10496053;28;20230;-73
2023/05/10 19:31:17;;;;;;;1.93;1.10;;;15.80;41.50;;;;;;10497102;28;20330;-73
2023/05/10 19:36:20;;;;;;;1.40;1.30;;;15.80;42.10;;;;;;10491723;28;20231;-73
2023/05/10 19:41:24;;;;;;;1.57;1.10;;;15.80;41.80;;;;;;10490869;28;20602;-73
2023/05/10 19:46:29;;;;;;;1.00;0.97;;;15.90;41.80;;;;;;10499227;28;20853;-74
2023/05/10 19:51:33;;;;;;;1.70;1.43;;;15.90;42.20;;;;;;10491340;28;20219;-73
2023/05/10 19:56:36;;;;;;;1.70;1.60;;;15.90;41.70;;;;;;10486982;28;20220;-73
2023/05/10 20:01:40;;;;;;;1.50;1.40;;;15.90;41.90;;;;;;10486436;28;20232;-73
2023/05/10 20:06:44;;;;;;;1.30;1.20;;;15.90;42.10;;;;;;10487431;28;20228;-72
2023/05/10 20:11:49;;;;;;;1.40;1.30;;;15.90;41.80;;;;;;10489358;28;20219;-73
2023/05/10 20:16:53;;;;;;;2.30;1.43;;;15.80;42.00;;;;;;10489475;28;20220;-73
2023/05/10 20:21:57;;;;;;;1.13;1.13;;;15.80;42.00;;;;;;10494527;28;20331;-72
2023/05/10 20:27:01;;;;;;;2.20;1.30;;;15.80;41.80;;;;;;10487914;28;20228;-73
2023/05/10 20:32:06;;;;;;;1.60;1.37;;;15.70;41.80;;;;;;10487142;28;20262;-73
2023/05/10 20:37:09;;;;;;;1.43;1.33;;;15.80;42.40;;;;;;10486751;28;20235;-72
2023/05/10 20:42:12;;;;;;;1.80;1.40;;;15.80;41.90;;;;;;10489063;28;20227;-72
2023/05/10 20:47:17;;;;;;;2.43;1.30;;;15.80;41.90;;;;;;10484944;28;20235;-73
2023/05/10 20:52:21;;;;;;;1.63;1.30;;;15.80;42.30;;;;;;10484481;28;20225;-72
2023/05/10 20:57:27;;;;;;;2.63;1.33;;;15.80;41.90;;;;;;10485124;28;20228;-73
2023/05/10 21:02:31;;;;;;;3.40;1.50;;;15.80;42.00;;;;;;10488982;28;20231;-72
2023/05/10 21:07:35;;;;;;;1.93;1.43;;;15.80;42.10;;;;;;10487953;28;20235;-73
2023/05/10 21:12:38;;;;;;;2.80;1.50;;;15.80;41.70;;;;;;10497347;28;20238;-73
2023/05/10 21:17:42;;;;;;;1.23;1.10;;;15.70;41.70;;;;;;10498414;28;20753;-73
2023/05/10 21:22:46;;;;;;;1.43;1.30;;;15.70;42.20;;;;;;10496983;28;20227;-73
2023/05/10 21:27:49;;;;;;;1.93;1.30;;;15.60;41.90;;;;;;10499257;28;20615;-73
2023/05/10 21:32:58;;;;;;;1.50;1.40;;;15.60;41.90;;;;;;10499453;28;20227;-74
2023/05/10 21:38:01;;;;;;;1.30;1.20;;;15.60;42.40;;;;;;10502129;28;20231;-74
2023/05/10 21:43:04;;;;;;;1.73;1.30;;;15.60;42.00;;;;;;10459679;28;20633;-75
2023/05/10 21:48:09;;;;;;;1.40;1.30;;;15.60;42.10;;;;;;10463384;28;20220;-73
2023/05/10 21:53:12;;;;;;;1.50;1.40;;;15.60;42.60;;;;;;10476951;28;20872;-73
2023/05/10 21:58:15;;;;;;;1.30;1.20;;;15.60;42.10;;;;;;10503479;28;20224;-74
2023/05/10 22:03:20;;;;;;;1.33;1.23;;;15.60;42.10;;;;;;10491691;28;20229;-73
2023/05/10 22:08:23;;;;;;;1.77;1.37;;;15.50;42.30;;;;;;10466236;28;20704;-73
2023/05/10 22:13:27;;;;;;;1.50;1.40;;;15.40;41.90;;;;;;10468809;28;20240;-73
2023/05/10 22:18:31;;;;;;;1.50;1.40;;;15.40;42.10;;;;;;10465798;28;20233;-73
2023/05/10 22:23:35;;;;;;;1.63;1.53;;;15.30;42.50;;;;;;10461306;28;20275;-73
2023/05/10 22:28:38;;;;;;;2.10;1.43;;;15.30;42.30;;;;;;10465261;28;20224;-73
2023/05/10 22:33:42;;;;;;;1.63;1.53;;;15.20;42.50;;;;;;10464075;28;20626;-73
2023/05/10 22:38:45;;;;;;;1.50;1.40;;;15.20;43.00;;;;;;10462362;28;20727;-73
2023/05/10 22:43:49;;;;;;;1.50;1.40;;;15.20;42.80;;;;;;10465783;28;20857;-73
2023/05/10 22:48:54;;;;;;;1.83;1.30;;;15.10;42.90;;;;;;10463683;28;20224;-73
2023/05/10 22:53:57;;;;;;;3.70;1.73;;;15.10;44.00;;;;;;10465860;28;20485;-73
2023/05/10 22:59:00;;;;;;;2.20;1.20;;;15.20;43.10;;;;;;10467283;28;20317;-72
2023/05/10 23:04:05;;;;;;;2.00;1.60;;;15.20;43.00;;;;;;10501834;28;20284;-74
2023/05/10 23:09:08;;;;;;;1.70;1.40;;;15.20;43.40;;;;;;10507011;28;20750;-73
2023/05/10 23:14:12;;;;;;;1.67;1.57;;;15.20;42.90;;;;;;10506262;28;20232;-74
2023/05/10 23:19:16;;;;;;;1.60;1.50;;;15.20;42.90;;;;;;10504422;28;20226;-73
2023/05/10 23:24:19;;;;;;;1.63;1.53;;;15.10;43.40;;;;;;10507192;28;20238;-72
2023/05/10 23:29:25;;;;;;;2.13;1.60;;;15.10;43.10;;;;;;10508769;28;20234;-73
2023/05/10 23:34:29;;;;;;;1.73;1.60;;;15.10;43.10;;;;;;10502156;28;20231;-73
2023/05/10 23:39:32;;;;;;;1.73;1.63;;;15.10;43.70;;;;;;10505379;28;20220;-73
2023/05/10 23:44:36;;;;;;;1.60;1.50;;;15.10;43.20;;;;;;10508388;28;20238;-73
2023/05/10 23:49:40;;;;;;;2.53;1.80;;;15.00;43.10;;;;;;10504257;28;20237;-73
2023/05/10 23:54:44;;;;;;;1.60;1.33;;;15.00;43.70;;;;;;10504681;28;20250;-73
2023/05/10 23:59:48;;;;;;;2.43;1.70;;;15.00;43.20;;;;;;10506926;28;20226;-73
